createdAt,value
2017-11-22T00:00:35.465Z,7.90
2017-11-22T00:03:03.001Z,7.90
2017-11-22T00:05:37.201Z,7.90
2017-11-22T00:08:04.863Z,7.90
2017-11-22T00:10:33.080Z,8.00
2017-11-22T00:13:01.353Z,8.10
2017-11-22T00:15:28.848Z,8.10
2017-11-22T00:17:56.361Z,8.10
2017-11-22T00:20:24.636Z,8.40
2017-11-22T00:22:52.137Z,8.40
2017-11-22T00:25:19.666Z,8.50
2017-11-22T00:27:47.931Z,8.90
2017-11-22T00:30:15.433Z,8.90
2017-11-22T00:32:43.064Z,9.20
2017-11-22T00:35:10.573Z,9.30
2017-11-22T00:37:38.078Z,9.50
2017-11-22T00:40:05.588Z,9.60
2017-11-22T00:42:33.821Z,9.70
2017-11-22T00:45:01.780Z,9.80
2017-11-22T00:47:30.051Z,10.00
2017-11-22T00:49:57.560Z,10.00
2017-11-22T00:52:25.075Z,10.10
2017-11-22T00:54:53.357Z,10.10
2017-11-22T00:57:20.872Z,10.10
2017-11-22T00:59:48.490Z,10.20
2017-11-22T01:02:16.043Z,10.10
2017-11-22T01:04:44.257Z,10.20
2017-11-22T01:07:11.783Z,10.20
2017-11-22T01:09:39.355Z,10.20
2017-11-22T01:12:06.871Z,10.30
2017-11-22T01:14:34.418Z,10.20
2017-11-22T01:17:01.938Z,10.20
2017-11-22T01:19:29.703Z,10.10
2017-11-22T01:21:57.471Z,10.10
2017-11-22T01:24:24.981Z,10.20
2017-11-22T01:26:53.304Z,10.10
2017-11-22T01:29:20.820Z,10.10
2017-11-22T01:31:48.518Z,10.10
2017-11-22T01:34:16.288Z,10.00
2017-11-22T01:36:43.805Z,10.10
2017-11-22T01:39:11.311Z,10.10
2017-11-22T01:41:38.969Z,10.10
2017-11-22T01:44:06.728Z,10.10
2017-11-22T01:46:34.246Z,10.10
2017-11-22T01:49:01.748Z,10.10
2017-11-22T01:51:29.270Z,10.00
2017-11-22T01:53:56.860Z,10.00
2017-11-22T01:56:24.373Z,10.10
2017-11-22T01:58:52.054Z,10.10
2017-11-22T02:01:19.565Z,10.10
2017-11-22T02:03:47.076Z,10.10
2017-11-22T02:06:14.767Z,10.10
2017-11-22T02:08:42.286Z,10.00
2017-11-22T02:11:09.973Z,10.00
2017-11-22T02:13:37.501Z,10.00
2017-11-22T02:16:05.174Z,10.00
2017-11-22T02:18:33.572Z,10.00
2017-11-22T02:21:01.328Z,10.00
2017-11-22T02:23:28.835Z,10.00
2017-11-22T02:25:56.400Z,9.90
2017-11-22T02:28:24.929Z,10.00
2017-11-22T02:30:52.438Z,10.00
2017-11-22T02:33:20.046Z,9.90
2017-11-22T02:35:47.549Z,9.90
2017-11-22T02:38:15.064Z,9.90
2017-11-22T02:40:42.573Z,9.80
2017-11-22T02:43:10.290Z,9.90
2017-11-22T02:45:37.798Z,9.80
2017-11-22T02:48:05.303Z,9.80
2017-11-22T02:50:32.817Z,9.80
2017-11-22T02:53:01.348Z,9.80
2017-11-22T02:55:28.857Z,9.80
2017-11-22T02:57:56.356Z,9.80
2017-11-22T03:00:23.860Z,9.70
2017-11-22T03:02:52.397Z,9.70
2017-11-22T03:05:19.901Z,9.70
2017-11-22T03:07:47.454Z,9.60
2017-11-22T03:10:15.986Z,9.70
2017-11-22T03:12:43.480Z,9.70
2017-11-22T03:15:11.002Z,9.70
2017-11-22T03:17:38.669Z,9.80
2017-11-22T03:20:06.426Z,9.70
2017-11-22T03:22:34.321Z,9.60
2017-11-22T03:25:01.958Z,9.60
2017-11-22T03:27:29.461Z,9.60
2017-11-22T03:29:57.141Z,9.60
2017-11-22T03:32:24.648Z,9.70
2017-11-22T03:34:52.153Z,9.60
2017-11-22T03:37:19.676Z,9.60
2017-11-22T03:39:47.182Z,9.60
2017-11-22T03:42:14.772Z,9.60
2017-11-22T03:44:42.270Z,9.60
2017-11-22T03:47:09.988Z,9.70
2017-11-22T03:49:43.191Z,9.70
2017-11-22T03:52:16.324Z,9.70
2017-11-22T03:54:43.823Z,9.70
2017-11-22T03:57:11.489Z,9.70
2017-11-22T03:59:38.988Z,9.70
2017-11-22T04:02:06.705Z,9.70
2017-11-22T04:04:34.223Z,9.80
2017-11-22T04:07:01.941Z,9.70
2017-11-22T04:09:29.448Z,9.70
2017-11-22T04:11:58.113Z,9.70
2017-11-22T04:14:25.622Z,9.70
2017-11-22T04:16:53.865Z,9.70
2017-11-22T04:19:27.087Z,9.70
2017-11-22T04:21:54.649Z,9.60
2017-11-22T04:24:22.428Z,9.70
2017-11-22T04:26:49.950Z,9.70
2017-11-22T04:29:17.470Z,9.80
2017-11-22T04:31:45.094Z,9.80
2017-11-22T04:34:12.832Z,9.80
2017-11-22T04:36:40.329Z,9.80
2017-11-22T04:39:07.842Z,9.80
2017-11-22T04:41:35.337Z,9.70
2017-11-22T04:44:02.846Z,9.60
2017-11-22T04:46:30.357Z,9.60
2017-11-22T04:48:57.905Z,9.70
2017-11-22T04:51:25.409Z,9.70
2017-11-22T04:53:52.929Z,9.70
2017-11-22T04:56:20.577Z,9.70
2017-11-22T04:58:48.340Z,9.70
2017-11-22T05:01:16.049Z,9.80
2017-11-22T05:03:43.555Z,9.70
2017-11-22T05:06:11.062Z,9.70
2017-11-22T05:08:38.569Z,9.80
2017-11-22T05:11:06.081Z,9.80
2017-11-22T05:13:34.377Z,9.80
2017-11-22T05:16:01.996Z,9.80
2017-11-22T05:18:29.503Z,9.80
2017-11-22T05:20:57.298Z,9.90
2017-11-22T05:23:24.797Z,9.80
2017-11-22T05:25:52.514Z,9.80
2017-11-22T05:28:20.016Z,9.80
2017-11-22T05:30:47.730Z,9.80
2017-11-22T05:33:15.497Z,9.80
2017-11-22T05:35:43.001Z,9.80
2017-11-22T05:38:10.725Z,9.90
2017-11-22T05:40:38.232Z,9.90
2017-11-22T05:43:05.932Z,9.80
2017-11-22T05:45:33.449Z,9.80
2017-11-22T05:48:00.961Z,9.80
2017-11-22T05:50:28.474Z,9.80
2017-11-22T05:52:55.995Z,9.80
2017-11-22T05:55:24.269Z,9.80
2017-11-22T05:57:51.897Z,9.80
2017-11-22T06:00:19.397Z,9.80
2017-11-22T06:02:47.733Z,9.80
2017-11-22T06:05:16.035Z,9.80
2017-11-22T06:07:43.548Z,9.80
2017-11-22T06:10:11.041Z,9.80
2017-11-22T06:12:38.566Z,9.80
2017-11-22T06:15:06.060Z,9.80
2017-11-22T06:17:33.562Z,9.90
2017-11-22T06:20:01.169Z,9.90
2017-11-22T06:22:29.003Z,9.80
2017-11-22T06:24:57.440Z,9.80
2017-11-22T06:27:25.534Z,9.80
2017-11-22T06:29:56.633Z,9.80
2017-11-22T06:32:24.164Z,9.80
2017-11-22T06:34:52.154Z,9.80
2017-11-22T06:37:19.655Z,9.80
2017-11-22T06:39:48.037Z,9.90
2017-11-22T06:42:15.532Z,9.90
2017-11-22T06:44:43.631Z,9.90
2017-11-22T06:47:11.129Z,9.90
2017-11-22T06:49:38.636Z,9.90
2017-11-22T06:52:06.150Z,9.90
2017-11-22T06:54:33.869Z,10.00
2017-11-22T06:57:01.375Z,9.90
2017-11-22T06:59:28.939Z,9.90
2017-11-22T07:01:59.267Z,9.90
2017-11-22T07:04:27.708Z,9.90
2017-11-22T07:06:55.213Z,9.80
2017-11-22T07:09:22.873Z,9.90
2017-11-22T07:11:50.642Z,9.90
2017-11-22T07:14:19.204Z,9.90
2017-11-22T07:16:52.357Z,9.90
2017-11-22T07:19:20.076Z,9.90
2017-11-22T07:21:47.685Z,9.90
2017-11-22T07:24:16.221Z,9.90
2017-11-22T07:26:43.737Z,9.90
2017-11-22T07:29:12.211Z,9.80
2017-11-22T07:31:40.750Z,9.90
2017-11-22T07:34:08.257Z,9.80
2017-11-22T07:36:41.588Z,9.90
2017-11-22T07:39:09.126Z,10.00
2017-11-22T07:41:36.622Z,10.10
2017-11-22T07:44:04.139Z,10.00
2017-11-22T07:46:31.647Z,10.00
2017-11-22T07:48:59.146Z,9.90
2017-11-22T07:51:32.362Z,10.00
2017-11-22T07:53:59.865Z,9.90
2017-11-22T07:56:27.593Z,10.00
2017-11-22T07:58:55.106Z,10.00
2017-11-22T08:01:22.809Z,10.10
2017-11-22T08:04:05.197Z,10.10
2017-11-22T08:06:32.761Z,10.00
2017-11-22T08:09:00.558Z,10.00
2017-11-22T08:11:28.308Z,10.00
2017-11-22T08:13:55.826Z,10.00
2017-11-22T08:16:23.353Z,10.10
2017-11-22T08:18:50.861Z,10.10
2017-11-22T08:21:18.407Z,10.00
2017-11-22T08:23:45.926Z,10.10
2017-11-22T08:26:14.340Z,10.10
2017-11-22T08:28:42.038Z,10.10
2017-11-22T08:31:09.551Z,10.00
2017-11-22T08:33:37.275Z,10.00
2017-11-22T08:36:04.789Z,10.10
2017-11-22T08:38:32.425Z,10.10
2017-11-22T08:40:59.927Z,10.20
2017-11-22T08:43:33.367Z,10.30
2017-11-22T08:46:00.863Z,10.20
2017-11-22T08:48:28.382Z,10.20
2017-11-22T08:50:55.889Z,10.20
2017-11-22T08:53:23.661Z,10.20
2017-11-22T08:55:56.787Z,10.20
2017-11-22T08:58:26.261Z,10.10
2017-11-22T09:00:53.771Z,10.20
2017-11-22T09:03:24.273Z,10.20
2017-11-22T09:05:57.374Z,10.20
2017-11-22T09:08:25.652Z,10.20
2017-11-22T09:10:53.961Z,10.20
2017-11-22T09:13:28.013Z,10.20
2017-11-22T09:15:55.660Z,10.30
2017-11-22T09:18:28.785Z,10.20
2017-11-22T09:20:57.329Z,10.20
2017-11-22T09:23:25.093Z,10.20
2017-11-22T09:25:52.607Z,10.20
2017-11-22T09:28:20.116Z,10.20
2017-11-22T09:30:53.462Z,10.30
2017-11-22T09:33:20.971Z,10.30
2017-11-22T09:35:48.489Z,10.30
2017-11-22T09:38:16.005Z,10.30
2017-11-22T09:40:43.661Z,10.40
2017-11-22T09:43:12.080Z,10.40
2017-11-22T09:45:39.881Z,10.30
2017-11-22T09:48:07.646Z,10.40
2017-11-22T09:50:35.166Z,10.40
2017-11-22T09:53:02.864Z,10.30
2017-11-22T09:55:30.501Z,10.30
2017-11-22T09:57:58.090Z,10.30
2017-11-22T10:00:25.606Z,10.30
2017-11-22T10:02:53.109Z,10.30
2017-11-22T10:05:20.733Z,10.30
2017-11-22T10:07:48.253Z,10.40
2017-11-22T10:10:15.954Z,10.40
2017-11-22T10:12:43.456Z,10.40
2017-11-22T10:15:11.200Z,10.40
2017-11-22T10:17:40.531Z,10.50
2017-11-22T10:20:08.033Z,10.60
2017-11-22T10:22:41.305Z,10.50
2017-11-22T10:25:09.784Z,10.60
2017-11-22T10:27:42.868Z,10.50
2017-11-22T10:30:13.384Z,10.50
2017-11-22T10:32:46.520Z,10.50
2017-11-22T10:35:14.034Z,10.60
2017-11-22T10:37:42.296Z,10.60
2017-11-22T10:40:09.811Z,10.50
2017-11-22T10:42:37.525Z,10.70
2017-11-22T10:45:05.026Z,10.70
2017-11-22T10:47:32.585Z,10.60
2017-11-22T10:50:00.088Z,10.70
2017-11-22T10:52:27.606Z,10.60
2017-11-22T10:54:55.384Z,10.60
2017-11-22T10:57:22.905Z,10.60
2017-11-22T10:59:50.620Z,10.50
2017-11-22T11:02:18.133Z,10.50
2017-11-22T11:04:45.820Z,10.50
2017-11-22T11:07:13.328Z,10.40
2017-11-22T11:09:41.014Z,10.40
2017-11-22T11:12:08.516Z,10.40
2017-11-22T11:14:36.267Z,10.50
2017-11-22T11:17:03.777Z,10.50
2017-11-22T11:19:31.284Z,10.50
2017-11-22T11:21:58.793Z,10.50
2017-11-22T11:24:26.410Z,10.50
2017-11-22T11:26:53.981Z,10.40
2017-11-22T11:29:21.616Z,10.30
2017-11-22T11:31:49.140Z,10.40
2017-11-22T11:34:16.652Z,10.30
2017-11-22T11:36:44.189Z,10.40
2017-11-22T11:39:11.701Z,10.40
2017-11-22T11:41:39.211Z,10.40
2017-11-22T11:44:06.729Z,10.30
2017-11-22T11:46:34.296Z,10.30
2017-11-22T11:49:02.089Z,10.30
2017-11-22T11:51:29.600Z,10.40
2017-11-22T11:53:57.113Z,10.40
2017-11-22T11:56:24.766Z,10.30
2017-11-22T11:58:52.276Z,10.30
2017-11-22T12:01:19.789Z,10.30
2017-11-22T12:03:47.436Z,10.30
2017-11-22T12:06:14.947Z,10.30
2017-11-22T12:08:42.456Z,10.30
2017-11-22T12:11:12.056Z,10.30
2017-11-22T12:13:39.704Z,10.40
2017-11-22T12:16:07.206Z,10.30
2017-11-22T12:18:34.921Z,10.40
2017-11-22T12:21:02.885Z,10.40
2017-11-22T12:23:30.473Z,10.40
2017-11-22T12:25:58.010Z,10.30
2017-11-22T12:28:25.653Z,10.30
2017-11-22T12:30:53.164Z,10.40
2017-11-22T12:33:24.292Z,10.50
2017-11-22T12:35:52.668Z,10.50
2017-11-22T12:38:23.820Z,10.60
2017-11-22T12:40:51.327Z,10.50
2017-11-22T12:43:18.848Z,10.40
2017-11-22T12:45:46.485Z,10.40
2017-11-22T12:48:13.999Z,10.40
2017-11-22T12:50:41.518Z,10.40
2017-11-22T12:53:09.025Z,10.50
2017-11-22T12:55:36.720Z,10.50
2017-11-22T12:58:18.712Z,10.50
2017-11-22T13:00:46.223Z,10.60
2017-11-22T13:03:13.732Z,10.50
2017-11-22T13:05:41.242Z,10.50
2017-11-22T13:08:08.753Z,10.50
2017-11-22T13:10:42.101Z,10.50
2017-11-22T13:13:09.606Z,10.50
2017-11-22T13:15:37.121Z,10.50
2017-11-22T13:18:04.677Z,10.50
2017-11-22T13:20:32.389Z,10.50
2017-11-22T13:22:59.921Z,10.60
2017-11-22T13:25:27.608Z,10.60
2017-11-22T13:27:55.340Z,10.60
2017-11-22T13:30:22.937Z,10.50
2017-11-22T13:32:50.445Z,10.60
2017-11-22T13:35:17.948Z,10.60
2017-11-22T13:37:45.502Z,10.70
2017-11-22T13:40:13.005Z,10.60
2017-11-22T13:42:40.525Z,10.70
2017-11-22T13:45:08.998Z,10.60
2017-11-22T13:47:36.548Z,10.60
2017-11-22T13:50:04.053Z,10.70
2017-11-22T13:52:31.579Z,10.70
2017-11-22T13:54:59.084Z,10.70
2017-11-22T13:57:26.689Z,10.70
2017-11-22T13:59:54.197Z,10.70
2017-11-22T14:02:21.713Z,10.70
2017-11-22T14:04:49.217Z,10.80
2017-11-22T14:07:16.841Z,10.70
2017-11-22T14:09:44.365Z,10.70
2017-11-22T14:12:11.876Z,10.70
2017-11-22T14:14:40.149Z,10.90
2017-11-22T14:17:07.881Z,10.80
2017-11-22T14:19:35.380Z,10.80
2017-11-22T14:22:02.900Z,10.90
2017-11-22T14:24:30.416Z,10.90
2017-11-22T14:26:58.014Z,10.80
2017-11-22T14:29:25.519Z,10.90
2017-11-22T14:31:53.034Z,10.90
2017-11-22T14:34:20.576Z,10.90
2017-11-22T14:36:48.080Z,10.90
2017-11-22T14:39:15.593Z,10.90
2017-11-22T14:41:43.096Z,10.90
2017-11-22T14:44:10.608Z,10.90
2017-11-22T14:46:38.131Z,10.90
2017-11-22T14:49:05.649Z,10.90
2017-11-22T14:51:33.158Z,10.90
2017-11-22T14:54:00.717Z,10.90
2017-11-22T14:56:28.404Z,11.00
2017-11-22T14:58:55.923Z,11.00
2017-11-22T15:01:23.426Z,10.90
2017-11-22T15:03:50.937Z,11.00
2017-11-22T15:06:18.441Z,11.00
2017-11-22T15:08:45.958Z,11.00
2017-11-22T15:11:13.478Z,11.00
2017-11-22T15:13:41.001Z,11.00
2017-11-22T15:16:08.517Z,11.00
2017-11-22T15:18:36.819Z,10.90
2017-11-22T15:21:04.380Z,10.90
2017-11-22T15:23:31.895Z,10.90
2017-11-22T15:25:59.420Z,10.90
2017-11-22T15:28:27.122Z,10.90
2017-11-22T15:30:54.650Z,10.90
2017-11-22T15:33:22.405Z,10.90
2017-11-22T15:35:49.919Z,10.90
2017-11-22T15:38:17.434Z,10.90
2017-11-22T15:40:44.952Z,10.90
2017-11-22T15:43:12.457Z,10.90
2017-11-22T15:45:39.970Z,10.90
2017-11-22T15:48:07.469Z,10.90
2017-11-22T15:50:34.981Z,10.90
2017-11-22T15:53:02.489Z,10.90
2017-11-22T15:55:30.301Z,10.80
2017-11-22T15:57:57.897Z,10.80
2017-11-22T16:00:25.508Z,10.80
2017-11-22T16:02:53.770Z,10.80
2017-11-22T16:05:21.275Z,10.80
2017-11-22T16:07:48.789Z,10.80
2017-11-22T16:10:17.061Z,10.70
2017-11-22T16:12:44.585Z,10.70
2017-11-22T16:15:12.096Z,10.60
2017-11-22T16:17:39.693Z,10.60
2017-11-22T16:20:07.197Z,10.60
2017-11-22T16:22:34.885Z,10.70
2017-11-22T16:25:02.670Z,10.60
2017-11-22T16:27:30.185Z,10.60
2017-11-22T16:29:57.889Z,10.60
2017-11-22T16:32:25.661Z,10.60
2017-11-22T16:34:53.160Z,10.60
2017-11-22T16:37:20.788Z,10.50
2017-11-22T16:39:48.294Z,10.50
2017-11-22T16:42:15.801Z,10.40
2017-11-22T16:44:43.322Z,10.40
2017-11-22T16:47:10.829Z,10.40
2017-11-22T16:49:38.337Z,10.40
2017-11-22T16:52:05.852Z,10.40
2017-11-22T16:54:33.347Z,10.40
2017-11-22T16:57:01.136Z,10.40
2017-11-22T16:59:28.901Z,10.40
2017-11-22T17:01:56.418Z,10.40
2017-11-22T17:04:24.121Z,10.40
2017-11-22T17:06:51.641Z,10.30
2017-11-22T17:09:19.170Z,10.30
2017-11-22T17:11:46.685Z,10.30
2017-11-22T17:14:14.194Z,10.40
2017-11-22T17:16:41.708Z,10.40
2017-11-22T17:19:09.217Z,10.40
2017-11-22T17:21:36.725Z,10.50
2017-11-22T17:24:04.238Z,10.50
2017-11-22T17:26:32.766Z,10.40
2017-11-22T17:29:00.282Z,10.40
2017-11-22T17:31:27.793Z,10.40
2017-11-22T17:33:55.663Z,10.40
2017-11-22T17:36:23.722Z,10.50
2017-11-22T17:38:51.799Z,10.40
2017-11-22T17:41:19.304Z,10.40
2017-11-22T17:43:46.822Z,10.40
2017-11-22T17:46:14.318Z,10.40
2017-11-22T17:48:42.566Z,10.40
2017-11-22T17:51:10.954Z,10.50
2017-11-22T17:53:39.930Z,10.50
2017-11-22T17:56:07.440Z,10.60
2017-11-22T17:58:34.941Z,11.00
2017-11-22T18:01:02.681Z,11.20
2017-11-22T18:03:30.420Z,11.20
2017-11-22T18:05:58.212Z,11.20
2017-11-22T18:08:25.725Z,12.30
2017-11-22T18:10:53.232Z,12.20
2017-11-22T18:13:20.744Z,12.10
2017-11-22T18:15:48.269Z,12.80
2017-11-22T18:18:15.807Z,12.60
2017-11-22T18:20:43.321Z,12.70
2017-11-22T18:23:12.153Z,12.40
2017-11-22T18:25:40.381Z,11.70
2017-11-22T18:28:07.875Z,11.20
2017-11-22T18:30:35.399Z,10.80
2017-11-22T18:33:02.998Z,10.60
2017-11-22T18:35:30.531Z,10.60
2017-11-22T18:37:58.224Z,10.50
2017-11-22T18:40:25.734Z,10.50
2017-11-22T18:42:53.239Z,10.50
2017-11-22T18:45:20.754Z,10.40
2017-11-22T18:47:48.261Z,10.40
2017-11-22T18:50:15.782Z,10.50
2017-11-22T18:52:43.573Z,10.40
2017-11-22T18:55:11.873Z,10.40
2017-11-22T18:57:39.602Z,10.30
2017-11-22T19:00:07.299Z,10.20
2017-11-22T19:02:35.471Z,10.10
2017-11-22T19:05:03.521Z,10.10
2017-11-22T19:07:31.616Z,10.10
2017-11-22T19:09:59.646Z,10.10
2017-11-22T19:12:27.324Z,10.10
2017-11-22T19:14:54.862Z,10.10
2017-11-22T19:17:22.366Z,10.10
2017-11-22T19:19:50.037Z,10.00
2017-11-22T19:22:18.782Z,9.90
2017-11-22T19:24:46.372Z,9.90
2017-11-22T19:27:14.327Z,9.90
2017-11-22T19:29:42.399Z,9.90
2017-11-22T19:32:10.461Z,9.90
2017-11-22T19:34:38.534Z,9.90
2017-11-22T19:37:06.604Z,9.90
2017-11-22T19:39:34.110Z,9.90
2017-11-22T19:42:01.639Z,9.90
2017-11-22T19:44:29.144Z,9.90
2017-11-22T19:46:56.834Z,9.80
2017-11-22T19:49:24.467Z,9.80
2017-11-22T19:51:52.148Z,9.90
2017-11-22T19:54:19.646Z,9.80
2017-11-22T19:56:47.958Z,9.70
2017-11-22T19:59:15.474Z,9.70
2017-11-22T20:01:43.010Z,9.70
2017-11-22T20:04:10.574Z,9.70
2017-11-22T20:06:38.118Z,9.60
2017-11-22T20:09:05.646Z,9.70
2017-11-22T20:11:34.720Z,9.70
2017-11-22T20:14:02.642Z,9.70
2017-11-22T20:16:30.149Z,9.70
2017-11-22T20:18:58.415Z,9.60
2017-11-22T20:21:26.133Z,9.60
2017-11-22T20:23:53.647Z,9.70
2017-11-22T20:26:21.153Z,9.70
2017-11-22T20:28:48.671Z,9.60
2017-11-22T20:31:17.438Z,9.60
2017-11-22T20:33:45.885Z,9.50
2017-11-22T20:36:13.398Z,9.50
2017-11-22T20:38:41.074Z,9.60
2017-11-22T20:41:08.589Z,9.60
2017-11-22T20:43:36.309Z,9.50
2017-11-22T20:46:04.033Z,9.40
2017-11-22T20:48:31.545Z,9.50
2017-11-22T20:50:59.042Z,9.40
2017-11-22T20:53:27.026Z,9.40
2017-11-22T20:55:54.820Z,9.40
2017-11-22T20:58:22.316Z,9.40
2017-11-22T21:00:50.056Z,9.40
2017-11-22T21:03:17.825Z,9.50
2017-11-22T21:05:45.321Z,9.50
2017-11-22T21:08:12.834Z,9.50
2017-11-22T21:10:40.341Z,9.40
2017-11-22T21:13:07.909Z,9.50
2017-11-22T21:15:35.409Z,9.40
2017-11-22T21:18:03.032Z,9.40
2017-11-22T21:20:30.720Z,9.50
2017-11-22T21:22:58.344Z,9.50
2017-11-22T21:25:26.149Z,9.40
2017-11-22T21:27:53.905Z,9.50
2017-11-22T21:30:21.678Z,9.40
2017-11-22T21:32:49.220Z,9.40
2017-11-22T21:35:16.713Z,9.40
2017-11-22T21:37:44.431Z,9.40
2017-11-22T21:40:11.934Z,9.40
2017-11-22T21:42:39.458Z,9.50
2017-11-22T21:45:06.968Z,9.50
2017-11-22T21:47:34.470Z,9.40
2017-11-22T21:50:01.985Z,9.40
2017-11-22T21:52:29.701Z,9.50
2017-11-22T21:54:57.461Z,9.40
2017-11-22T21:57:25.181Z,9.50
2017-11-22T21:59:52.988Z,9.50
2017-11-22T22:02:20.501Z,9.50
2017-11-22T22:04:48.229Z,9.50
2017-11-22T22:07:15.760Z,9.50
2017-11-22T22:09:43.433Z,9.50
2017-11-22T22:12:11.193Z,9.40
2017-11-22T22:14:38.694Z,9.40
2017-11-22T22:17:06.406Z,9.50
2017-11-22T22:19:34.303Z,9.50
2017-11-22T22:22:01.954Z,9.50
2017-11-22T22:24:29.702Z,9.50
2017-11-22T22:26:57.209Z,9.50
2017-11-22T22:29:24.941Z,9.50
2017-11-22T22:31:52.690Z,9.50
2017-11-22T22:34:20.185Z,9.50
2017-11-22T22:36:47.906Z,9.40
2017-11-22T22:39:15.673Z,9.40
2017-11-22T22:41:43.435Z,9.30
2017-11-22T22:44:11.201Z,9.50
2017-11-22T22:46:38.701Z,9.80
2017-11-22T22:49:06.205Z,9.80
2017-11-22T22:51:34.157Z,9.90
2017-11-22T22:54:01.649Z,9.70
2017-11-22T22:56:29.140Z,9.50
2017-11-22T22:58:57.444Z,9.40
2017-11-22T23:01:25.552Z,9.20
2017-11-22T23:03:53.307Z,9.20
2017-11-22T23:06:21.077Z,9.10
2017-11-22T23:08:48.581Z,9.10
2017-11-22T23:11:16.297Z,9.10
2017-11-22T23:13:44.031Z,8.90
2017-11-22T23:16:12.429Z,9.00
2017-11-22T23:18:39.934Z,9.00
2017-11-22T23:21:07.652Z,9.10
2017-11-22T23:23:35.374Z,9.20
2017-11-22T23:26:02.860Z,9.10
2017-11-22T23:28:30.633Z,9.10
2017-11-22T23:30:58.128Z,9.00
2017-11-22T23:33:26.773Z,8.90
2017-11-22T23:35:54.268Z,9.00
2017-11-22T23:38:21.874Z,9.00
2017-11-22T23:40:49.408Z,8.80
2017-11-22T23:43:18.118Z,8.80
2017-11-22T23:45:46.402Z,8.80
2017-11-22T23:48:13.973Z,8.80
2017-11-22T23:50:41.465Z,8.80
2017-11-22T23:53:09.186Z,8.70
2017-11-22T23:55:36.724Z,8.80
2017-11-22T23:58:04.397Z,8.80
